ANYN Airport Information

Runway Information
Runway 12 Length 7054 ft width 148 ft
Elevation 22 ft Threshold 165 ft Heading 130
Runway 30 Length 7054 ft Width 148 ft
Elevation 20 ft Threshold 380 ft Heading 310
Airport Frequencies
Type A/G Name FIC Frequency 118.1 MHZ
Airport Navaids
Type VOR-DME Name Nauru Frequency 113000 KHZ
Type NDB Name Nauru Frequency 355 KHZ
Airport Weather Information & NOTAM
ADDS - METARS form results

(1920 UTC 25 February 2021)
Data provider http://aviationweather.gov/metar/data/
 
METAR text: ANYN 251900Z 02005KT 9999 FEW020 27/24 Q1007
Conditions at: ANYN (NAURU ISLAND , AU) observed 1900 UTC 25 February 2021
Temperature: 27.0°C (81°F)
Dewpoint: 24.0°C (75°F) [RH = 84%]
Pressure (altimeter): 29.73 inches Hg (1007.0 mb)
Winds: from the NNE (20 degrees) at 6 MPH (5 knots; 2.6 m/s)
Visibility: 6 or more miles (10+ km)
Ceiling: at least 12,000 feet AGL
Clouds: few clouds at 2000 feet AGL
Weather: no significant weather observed at this time

Forecast for: ANYN (NAURU ISLAND , AU)
Text: TAF ANYN 250928Z 2512/2612 05010KT 9999 FEW018 T 27 27 27 28 Q 1007 1005 1006 1008
Forecast period: 1200 UTC 25 February 2021 to 1200 UTC 26 February 2021
Forecast type: FROM: standard forecast or significant change
Winds: from the NE (50 degrees) at 12 MPH (10 knots; 5.1 m/s)
Visibility: 6 or more miles (10+ km)
Ceiling: at least 12,000 feet AGL
Clouds: few clouds at 1800 feet AGL
Weather: no significant weather forecast for this period